Time;durP1;ratioP1;P1;durP2;ratioP2;P2;SDS_P1;SDS_P2;PMS_P1;PMS_P2;Temp;Humidity;BMP_temperature;BMP_pressure;BME280_temperature;BME280_humidity;BME280_pressure;Samples;Min_cycle;Max_cycle;Signal;HPM_P1;HPM_P2
2023/08/08 00:01:24;;;;;;;4.20;3.80;;;24.30;47.30;;;;;;5016694;28;20436;-80
2023/08/08 00:03:54;;;;;;;4.13;3.80;;;24.20;47.20;;;;;;5018126;28;20471;-80
2023/08/08 00:06:22;;;;;;;3.13;2.93;;;24.20;47.10;;;;;;5018662;28;20419;-80
2023/08/08 00:08:50;;;;;;;3.80;3.50;;;24.20;47.30;;;;;;5015668;28;20483;-80
2023/08/08 00:11:18;;;;;;;3.57;3.37;;;24.20;47.30;;;;;;5015721;28;20469;-80
2023/08/08 00:13:46;;;;;;;3.07;2.77;;;24.20;47.10;;;;;;5025683;28;20445;-80
2023/08/08 00:16:14;;;;;;;3.97;3.07;;;24.20;47.40;;;;;;5014569;28;20427;-80
2023/08/08 00:18:42;;;;;;;4.43;3.50;;;24.10;47.30;;;;;;5025159;28;20440;-80
2023/08/08 00:21:12;;;;;;;4.50;2.93;;;24.10;47.30;;;;;;5034896;28;20473;-79
2023/08/08 00:23:39;;;;;;;3.73;3.17;;;24.10;47.30;;;;;;5031068;28;20453;-80
2023/08/08 00:26:07;;;;;;;4.23;3.40;;;24.10;47.50;;;;;;5029406;28;20409;-81
2023/08/08 00:28:35;;;;;;;3.87;3.10;;;24.10;47.50;;;;;;5021729;28;20428;-79
2023/08/08 00:31:03;;;;;;;3.67;3.07;;;24.10;47.40;;;;;;5017722;28;20570;-79
2023/08/08 00:33:31;;;;;;;3.20;3.00;;;24.10;47.40;;;;;;5017630;28;20433;-79
2023/08/08 00:35:58;;;;;;;3.20;3.00;;;24.00;47.60;;;;;;5025943;28;20530;-79
2023/08/08 00:38:28;;;;;;;3.07;2.87;;;24.00;47.60;;;;;;5027677;28;20505;-78
2023/08/08 00:40:56;;;;;;;2.90;2.70;;;24.00;47.50;;;;;;5014851;28;20488;-79
2023/08/08 00:43:24;;;;;;;3.23;3.00;;;24.00;47.60;;;;;;5016204;28;20466;-79
2023/08/08 00:45:52;;;;;;;3.27;2.97;;;23.90;47.60;;;;;;5029943;28;20509;-78
2023/08/08 00:48:20;;;;;;;3.03;2.77;;;23.90;47.60;;;;;;5025443;28;20462;-79
2023/08/08 00:50:48;;;;;;;5.07;2.93;;;23.90;47.60;;;;;;5022267;28;20434;-79
2023/08/08 00:53:16;;;;;;;2.63;2.33;;;23.90;47.70;;;;;;5036888;28;20436;-78
2023/08/08 00:55:45;;;;;;;5.43;4.47;;;23.90;47.60;;;;;;5024370;28;20504;-79
2023/08/08 00:58:13;;;;;;;4.70;4.20;;;23.90;47.60;;;;;;5034169;28;20441;-78
2023/08/08 01:00:42;;;;;;;7.30;5.40;;;23.90;47.80;;;;;;5023252;28;20437;-79
2023/08/08 01:03:10;;;;;;;5.97;5.23;;;23.90;47.80;;;;;;5020111;28;20442;-79
2023/08/08 01:05:41;;;;;;;6.17;5.57;;;23.80;47.70;;;;;;5022939;28;20418;-79
2023/08/08 01:08:09;;;;;;;6.20;5.20;;;23.80;47.90;;;;;;5023875;28;20494;-80
2023/08/08 01:10:39;;;;;;;9.83;6.77;;;23.80;47.60;;;;;;5013682;28;20474;-79
2023/08/08 01:13:11;;;;;;;8.23;6.70;;;23.80;47.90;;;;;;5018162;28;20411;-79
2023/08/08 01:15:39;;;;;;;8.53;6.33;;;23.80;47.80;;;;;;5009980;28;20435;-79
2023/08/08 01:18:08;;;;;;;8.40;6.57;;;23.80;47.90;;;;;;5010469;28;20426;-79
2023/08/08 01:20:37;;;;;;;11.53;8.50;;;23.80;47.90;;;;;;5018569;28;20476;-80
2023/08/08 01:23:10;;;;;;;7.90;7.07;;;23.70;48.10;;;;;;5019035;28;20493;-79
2023/08/08 01:25:40;;;;;;;8.93;7.10;;;23.80;47.90;;;;;;5018920;28;20468;-79
2023/08/08 01:28:09;;;;;;;9.03;7.30;;;23.80;48.00;;;;;;5017464;28;20479;-80
2023/08/08 01:30:36;;;;;;;11.33;7.77;;;23.80;48.10;;;;;;5018937;28;20463;-79
2023/08/08 01:33:06;;;;;;;8.90;7.47;;;23.80;48.10;;;;;;5018819;28;20411;-79
2023/08/08 01:35:40;;;;;;;12.03;8.33;;;23.70;48.10;;;;;;5028796;28;20450;-79
2023/08/08 01:38:11;;;;;;;9.60;7.93;;;23.70;48.00;;;;;;5022235;28;20443;-79
2023/08/08 01:40:40;;;;;;;9.10;7.80;;;23.70;48.20;;;;;;5021181;28;20515;-80
2023/08/08 01:43:09;;;;;;;9.40;7.77;;;23.70;48.20;;;;;;5027884;28;20476;-80
2023/08/08 01:45:36;;;;;;;9.13;7.60;;;23.70;48.10;;;;;;5018096;28;20465;-80
2023/08/08 01:48:08;;;;;;;9.03;7.90;;;23.70;48.10;;;;;;5024788;28;20527;-80
2023/08/08 01:50:36;;;;;;;9.73;7.97;;;23.70;48.00;;;;;;5042246;28;20474;-81
2023/08/08 01:53:04;;;;;;;9.60;6.97;;;23.70;48.00;;;;;;5031757;28;20450;-79
2023/08/08 01:55:32;;;;;;;7.60;6.80;;;23.70;48.20;;;;;;5027406;28;20480;-80
2023/08/08 01:58:01;;;;;;;10.00;7.57;;;23.70;48.10;;;;;;5036493;28;20535;-80
2023/08/08 02:00:30;;;;;;;8.73;7.73;;;23.70;48.30;;;;;;5022268;28;20437;-80
2023/08/08 02:02:58;;;;;;;9.40;7.90;;;23.70;48.40;;;;;;5026276;28;20443;-81
2023/08/08 02:05:26;;;;;;;10.80;8.17;;;23.70;48.00;;;;;;5038007;28;20414;-80
2023/08/08 02:07:54;;;;;;;8.40;7.50;;;23.70;48.10;;;;;;5035240;28;20480;-80
2023/08/08 02:10:23;;;;;;;9.50;7.80;;;23.70;48.20;;;;;;5032611;28;20475;-80
2023/08/08 02:12:50;;;;;;;8.30;7.33;;;23.60;48.20;;;;;;5026426;28;20439;-80
2023/08/08 02:15:20;;;;;;;10.13;7.43;;;23.70;48.30;;;;;;5040770;28;20444;-80
2023/08/08 02:17:47;;;;;;;7.53;6.37;;;23.70;48.20;;;;;;5025629;28;20450;-80
2023/08/08 02:20:15;;;;;;;8.70;7.33;;;23.60;48.30;;;;;;5040973;28;20535;-79
2023/08/08 02:22:43;;;;;;;9.40;7.47;;;23.60;48.30;;;;;;5042246;28;20439;-81
2023/08/08 02:25:11;;;;;;;7.70;6.70;;;23.60;48.30;;;;;;5035680;28;20475;-80
2023/08/08 02:27:39;;;;;;;9.13;7.40;;;23.60;48.40;;;;;;5032443;28;20442;-81
2023/08/08 02:30:09;;;;;;;10.07;7.30;;;23.60;48.30;;;;;;5032255;28;20507;-80
2023/08/08 02:32:38;;;;;;;8.77;7.30;;;23.60;48.50;;;;;;5040570;28;20513;-80
2023/08/08 02:35:07;;;;;;;7.97;6.80;;;23.60;48.40;;;;;;5024237;28;20458;-80
2023/08/08 02:37:35;;;;;;;10.20;7.77;;;23.60;48.40;;;;;;5038531;28;20418;-80
2023/08/08 02:40:04;;;;;;;8.93;7.37;;;23.60;48.50;;;;;;5025559;28;20455;-80
2023/08/08 02:42:32;;;;;;;8.10;6.90;;;23.50;48.50;;;;;;5030239;28;20531;-79
2023/08/08 02:45:00;;;;;;;9.70;7.27;;;23.50;48.40;;;;;;5020091;28;20501;-80
2023/08/08 02:47:27;;;;;;;10.37;6.90;;;23.50;48.40;;;;;;5036803;28;20441;-79
2023/08/08 02:49:57;;;;;;;9.03;7.43;;;23.50;48.50;;;;;;5039455;28;20527;-80
2023/08/08 02:52:24;;;;;;;8.70;7.03;;;23.50;48.50;;;;;;5029349;28;20476;-80
2023/08/08 02:54:52;;;;;;;7.50;6.77;;;23.50;48.60;;;;;;5039461;28;20442;-80
2023/08/08 02:57:20;;;;;;;8.27;6.97;;;23.50;48.60;;;;;;5032821;28;20460;-80
2023/08/08 02:59:48;;;;;;;7.23;6.27;;;23.50;48.60;;;;;;5007259;28;20542;-80
2023/08/08 03:02:16;;;;;;;6.73;6.00;;;23.50;48.40;;;;;;5021163;28;21002;-79
2023/08/08 03:04:44;;;;;;;8.40;6.77;;;23.50;48.60;;;;;;5028479;28;20486;-80
2023/08/08 03:07:13;;;;;;;7.00;6.30;;;23.50;48.70;;;;;;5020111;28;20423;-79
2023/08/08 03:09:41;;;;;;;7.97;6.37;;;23.50;48.80;;;;;;5021438;28;20477;-80
2023/08/08 03:12:09;;;;;;;8.37;6.37;;;23.50;48.80;;;;;;5032550;28;20501;-79
2023/08/08 03:14:37;;;;;;;7.23;6.30;;;23.50;48.70;;;;;;5019604;28;20411;-79
2023/08/08 03:17:06;;;;;;;7.93;6.53;;;23.50;48.80;;;;;;5026473;28;20475;-79
2023/08/08 03:19:33;;;;;;;7.30;6.20;;;23.50;48.60;;;;;;5019326;28;20480;-80
2023/08/08 03:22:01;;;;;;;7.57;6.73;;;23.50;48.70;;;;;;5026069;28;20426;-79
2023/08/08 03:24:31;;;;;;;6.90;6.17;;;23.50;48.70;;;;;;5024802;28;20520;-80
2023/08/08 03:26:59;;;;;;;6.80;6.00;;;23.50;48.80;;;;;;5032740;28;20463;-79
2023/08/08 03:31:54;;;;;;;6.57;5.97;;;23.50;48.80;;;;;;5002305;28;20458;-83
2023/08/08 03:34:22;;;;;;;6.90;6.20;;;23.50;48.80;;;;;;4985737;28;20466;-83
2023/08/08 03:36:51;;;;;;;8.47;6.03;;;23.50;48.60;;;;;;4988455;28;20438;-83
2023/08/08 03:39:18;;;;;;;7.80;6.70;;;23.50;48.80;;;;;;5001697;28;20400;-83
2023/08/08 03:41:48;;;;;;;6.53;5.83;;;23.50;48.70;;;;;;5001354;28;20562;-82
2023/08/08 03:44:16;;;;;;;5.80;5.20;;;23.50;48.70;;;;;;5008560;28;20524;-82
2023/08/08 03:46:44;;;;;;;7.00;6.00;;;23.50;48.80;;;;;;4998803;28;20537;-82
2023/08/08 03:49:12;;;;;;;5.80;5.30;;;23.50;48.90;;;;;;5001880;28;20416;-82
2023/08/08 03:51:40;;;;;;;6.43;5.40;;;23.50;48.90;;;;;;5010518;28;20447;-83
2023/08/08 03:54:08;;;;;;;5.87;5.30;;;23.40;48.80;;;;;;4999060;28;20424;-82
2023/08/08 03:56:36;;;;;;;6.00;5.40;;;23.50;49.00;;;;;;5016481;28;20436;-82
2023/08/08 03:59:06;;;;;;;6.53;5.70;;;23.50;48.70;;;;;;5003417;28;20466;-83
2023/08/08 04:01:35;;;;;;;5.93;5.00;;;23.40;48.80;;;;;;5004308;28;20525;-82
2023/08/08 04:04:03;;;;;;;5.73;5.20;;;23.50;48.80;;;;;;5004246;28;20479;-81
2023/08/08 04:06:31;;;;;;;5.93;4.90;;;23.50;49.10;;;;;;5001890;28;20416;-80
2023/08/08 04:09:00;;;;;;;7.10;5.20;;;23.50;48.90;;;;;;4996206;28;20445;-82
2023/08/08 04:11:28;;;;;;;5.50;5.00;;;23.50;48.90;;;;;;5000754;28;20492;-83
2023/08/08 04:13:57;;;;;;;8.50;5.30;;;23.50;49.10;;;;;;4993489;28;20438;-83
2023/08/08 04:16:26;;;;;;;5.43;4.93;;;23.50;48.90;;;;;;5002039;28;20473;-83
2023/08/08 04:18:54;;;;;;;5.23;4.70;;;23.50;49.60;;;;;;5002489;28;20437;-83
2023/08/08 04:21:23;;;;;;;5.73;5.10;;;23.50;49.00;;;;;;5001917;28;20460;-83
2023/08/08 04:23:51;;;;;;;5.40;4.90;;;23.40;49.00;;;;;;5002124;28;20457;-83
2023/08/08 04:26:19;;;;;;;6.40;5.10;;;23.50;48.90;;;;;;5003380;28;20438;-83
2023/08/08 04:28:47;;;;;;;5.07;4.57;;;23.40;49.10;;;;;;5002743;28;20416;-83
2023/08/08 04:31:15;;;;;;;4.90;4.50;;;23.40;49.00;;;;;;4994928;28;20480;-83
2023/08/08 04:33:45;;;;;;;5.00;4.60;;;23.50;49.00;;;;;;5001536;28;20446;-82
2023/08/08 04:36:13;;;;;;;5.37;4.87;;;23.50;49.10;;;;;;5012412;28;20515;-82
2023/08/08 04:38:41;;;;;;;6.33;4.90;;;23.50;49.10;;;;;;5002503;28;20433;-82
2023/08/08 04:41:09;;;;;;;8.30;5.07;;;23.50;49.10;;;;;;5002734;28;20469;-83
2023/08/08 04:43:37;;;;;;;5.37;4.87;;;23.50;49.00;;;;;;5002231;28;20519;-83
2023/08/08 04:46:05;;;;;;;5.20;4.70;;;23.50;49.10;;;;;;5002841;28;20527;-82
2023/08/08 04:48:34;;;;;;;4.50;3.67;;;23.50;49.10;;;;;;5000419;28;20435;-83
2023/08/08 04:51:05;;;;;;;4.77;4.37;;;23.50;49.10;;;;;;4995228;28;20451;-83
2023/08/08 04:53:33;;;;;;;4.63;4.23;;;23.50;49.00;;;;;;4999542;28;20445;-83
2023/08/08 04:56:10;;;;;;;4.87;4.43;;;23.50;49.20;;;;;;4989770;28;20464;-83
2023/08/08 04:58:40;;;;;;;6.07;4.27;;;23.50;49.10;;;;;;5001240;28;20517;-83
2023/08/08 05:01:14;;;;;;;4.00;3.60;;;23.50;49.20;;;;;;5003284;28;20974;-81
2023/08/08 05:03:51;;;;;;;4.20;3.80;;;23.50;49.20;;;;;;4999338;28;20416;-83
2023/08/08 05:06:24;;;;;;;4.90;4.07;;;23.50;49.20;;;;;;4993566;28;20449;-83
2023/08/08 05:08:55;;;;;;;4.97;4.23;;;23.50;49.30;;;;;;5000078;28;20491;-83
2023/08/08 05:11:34;;;;;;;4.43;4.00;;;23.50;49.10;;;;;;5000397;28;20463;-84
2023/08/08 05:14:10;;;;;;;3.50;3.20;;;23.50;49.30;;;;;;4999978;28;20449;-83
2023/08/08 05:16:43;;;;;;;4.27;3.87;;;23.50;49.30;;;;;;5002003;28;20423;-82
2023/08/08 05:19:12;;;;;;;5.70;4.30;;;23.50;49.30;;;;;;5004299;28;20440;-83
2023/08/08 05:21:42;;;;;;;3.80;3.53;;;23.50;49.30;;;;;;5003053;28;20468;-84
2023/08/08 05:24:12;;;;;;;4.50;4.10;;;23.50;49.10;;;;;;4998815;28;20452;-83
2023/08/08 05:26:41;;;;;;;4.00;3.70;;;23.50;49.20;;;;;;4996056;28;20531;-83
2023/08/08 05:29:19;;;;;;;3.67;3.37;;;23.50;49.40;;;;;;5001489;28;20430;-83
2023/08/08 05:32:07;;;;;;;3.73;3.43;;;23.50;49.20;;;;;;5000265;28;20455;-82
2023/08/08 05:34:55;;;;;;;3.90;3.60;;;23.50;49.30;;;;;;5011013;28;20448;-82
2023/08/08 05:37:33;;;;;;;3.60;3.30;;;23.50;49.30;;;;;;5008015;28;20429;-83
2023/08/08 05:40:03;;;;;;;4.10;3.80;;;23.50;49.30;;;;;;5003854;28;20484;-84
2023/08/08 05:42:32;;;;;;;3.90;3.50;;;23.50;49.30;;;;;;5007941;28;20423;-83
2023/08/08 05:45:01;;;;;;;4.07;3.67;;;23.50;49.40;;;;;;5014607;28;20443;-83
2023/08/08 05:47:33;;;;;;;5.17;3.50;;;23.50;49.30;;;;;;5012839;28;20445;-84
2023/08/08 05:50:03;;;;;;;4.00;3.43;;;23.50;49.40;;;;;;5012871;28;20523;-83
2023/08/08 05:52:33;;;;;;;5.53;3.70;;;23.50;49.40;;;;;;5011342;28;20495;-84
2023/08/08 05:55:01;;;;;;;3.13;2.93;;;23.50;49.40;;;;;;5008571;28;20440;-82
2023/08/08 05:57:29;;;;;;;3.10;2.90;;;23.50;49.60;;;;;;5002177;28;20499;-83
2023/08/08 05:59:57;;;;;;;3.60;3.30;;;23.50;49.50;;;;;;5005950;28;20461;-83
2023/08/08 06:02:31;;;;;;;3.70;3.40;;;23.60;49.50;;;;;;5004099;28;20446;-83
2023/08/08 06:05:03;;;;;;;3.97;3.57;;;23.50;49.40;;;;;;5015342;28;20551;-83
2023/08/08 06:07:31;;;;;;;3.50;3.20;;;23.60;49.50;;;;;;5012686;28;20471;-83
2023/08/08 06:10:04;;;;;;;5.10;3.20;;;23.50;49.50;;;;;;5000547;28;20504;-83
2023/08/08 06:12:36;;;;;;;3.50;3.03;;;23.60;49.50;;;;;;5008086;28;20478;-83
2023/08/08 06:15:05;;;;;;;2.93;2.73;;;23.60;49.60;;;;;;5005065;28;20517;-83
2023/08/08 06:17:34;;;;;;;4.30;3.20;;;23.60;49.60;;;;;;5000968;28;20455;-82
2023/08/08 06:20:02;;;;;;;3.77;3.47;;;23.70;49.60;;;;;;5009410;28;20454;-82
2023/08/08 06:22:31;;;;;;;3.27;2.97;;;23.70;50.20;;;;;;5002405;28;20843;-83
2023/08/08 06:24:59;;;;;;;3.30;2.90;;;23.70;49.40;;;;;;5000451;28;20464;-83
2023/08/08 06:27:29;;;;;;;3.13;2.93;;;23.70;49.30;;;;;;5009357;28;20479;-83
2023/08/08 06:29:59;;;;;;;3.37;3.10;;;23.70;49.50;;;;;;5004124;28;20489;-83
2023/08/08 06:32:27;;;;;;;2.63;2.53;;;23.80;49.60;;;;;;5009338;28;20486;-83
2023/08/08 06:34:56;;;;;;;2.60;2.40;;;23.80;49.50;;;;;;5016832;28;20420;-83
2023/08/08 06:37:24;;;;;;;6.00;2.80;;;23.90;49.30;;;;;;5024898;28;20459;-83
2023/08/08 06:39:52;;;;;;;2.67;2.50;;;23.90;49.40;;;;;;5016303;28;20469;-83
2023/08/08 06:42:21;;;;;;;3.57;3.00;;;24.00;49.30;;;;;;5015694;28;20458;-83
2023/08/08 06:44:53;;;;;;;2.40;2.30;;;24.10;49.30;;;;;;5003823;28;20839;-83
2023/08/08 06:47:21;;;;;;;2.73;2.50;;;24.10;49.30;;;;;;5017084;28;20464;-83
2023/08/08 06:49:49;;;;;;;3.37;2.50;;;24.20;49.40;;;;;;5009077;28;20539;-83
2023/08/08 06:52:18;;;;;;;2.63;2.40;;;24.20;49.40;;;;;;5013137;28;20424;-82
2023/08/08 06:54:46;;;;;;;2.47;2.30;;;24.30;49.30;;;;;;5001192;28;20457;-83
2023/08/08 06:57:14;;;;;;;5.67;2.43;;;24.30;49.20;;;;;;5009979;28;20460;-83
2023/08/08 06:59:42;;;;;;;2.63;2.43;;;24.30;49.10;;;;;;4998956;28;20464;-83
2023/08/08 07:02:11;;;;;;;2.40;2.30;;;24.40;49.40;;;;;;4998832;28;20510;-83
2023/08/08 07:04:39;;;;;;;4.80;2.50;;;24.50;49.80;;;;;;5004739;28;20448;-79
2023/08/08 07:07:07;;;;;;;2.67;2.10;;;24.50;49.20;;;;;;4999081;28;20520;-81
2023/08/08 07:09:37;;;;;;;2.37;2.27;;;24.50;49.10;;;;;;4999310;28;20453;-80
2023/08/08 07:12:05;;;;;;;2.70;2.50;;;24.60;49.10;;;;;;5001707;28;20473;-81
2023/08/08 07:14:34;;;;;;;3.53;2.40;;;24.60;49.20;;;;;;5000378;28;20473;-82
2023/08/08 07:17:03;;;;;;;2.30;2.10;;;24.70;49.00;;;;;;5008613;28;20485;-82
2023/08/08 07:19:33;;;;;;;2.10;1.90;;;24.70;49.10;;;;;;5004190;28;20467;-81
2023/08/08 07:22:00;;;;;;;2.20;2.00;;;24.70;49.10;;;;;;5005113;28;20424;-81
2023/08/08 07:24:29;;;;;;;2.80;2.03;;;24.60;49.20;;;;;;5004102;28;20435;-82
2023/08/08 07:26:58;;;;;;;2.57;2.13;;;24.70;49.30;;;;;;5005515;28;20531;-82
2023/08/08 07:29:26;;;;;;;2.80;2.60;;;24.70;49.20;;;;;;5009929;28;20403;-82
2023/08/08 07:31:55;;;;;;;2.90;2.70;;;24.80;49.20;;;;;;5002521;28;20455;-82
2023/08/08 07:34:23;;;;;;;2.50;2.30;;;24.80;49.20;;;;;;5010078;28;20434;-81
2023/08/08 07:36:52;;;;;;;3.20;2.30;;;24.80;49.20;;;;;;5010383;28;20438;-82
2023/08/08 07:39:20;;;;;;;2.50;2.30;;;24.90;49.10;;;;;;5004840;28;20448;-82
2023/08/08 07:41:48;;;;;;;2.53;2.07;;;24.90;49.10;;;;;;5011104;28;20477;-80
2023/08/08 07:44:16;;;;;;;2.37;2.27;;;25.00;49.20;;;;;;5015164;28;20467;-83
2023/08/08 07:46:45;;;;;;;2.60;2.40;;;25.00;49.10;;;;;;5015687;28;20469;-84
2023/08/08 07:49:14;;;;;;;3.60;2.10;;;25.00;48.90;;;;;;5006252;28;20937;-83
2023/08/08 07:51:42;;;;;;;2.20;2.10;;;25.10;49.00;;;;;;5004355;28;20496;-84
2023/08/08 07:54:11;;;;;;;2.47;2.37;;;25.10;49.10;;;;;;5002409;28;20485;-83
2023/08/08 07:56:39;;;;;;;2.30;2.20;;;25.20;49.20;;;;;;5001604;28;20433;-83
2023/08/08 07:59:21;;;;;;;2.93;2.30;;;25.20;49.00;;;;;;5008115;28;20454;-84
2023/08/08 08:01:51;;;;;;;5.13;2.00;;;25.30;49.30;;;;;;5001737;28;20481;-81
2023/08/08 08:04:20;;;;;;;2.67;2.40;;;25.40;49.10;;;;;;5003058;28;20473;-82
2023/08/08 08:06:48;;;;;;;2.50;2.30;;;25.50;49.10;;;;;;4999869;28;20439;-82
2023/08/08 08:09:30;;;;;;;2.43;2.13;;;25.70;49.10;;;;;;5002074;28;20416;-83
2023/08/08 08:12:02;;;;;;;2.10;1.90;;;25.70;49.00;;;;;;4998565;28;20478;-82
2023/08/08 08:14:33;;;;;;;2.00;1.90;;;25.70;49.20;;;;;;5004088;28;20805;-83
2023/08/08 08:17:02;;;;;;;2.13;1.87;;;25.70;49.00;;;;;;4999742;28;20440;-83
2023/08/08 08:19:30;;;;;;;3.43;2.20;;;25.80;49.40;;;;;;4996364;28;20487;-82
2023/08/08 08:21:59;;;;;;;2.40;2.20;;;25.90;49.30;;;;;;4998834;28;20436;-83
2023/08/08 08:24:28;;;;;;;2.20;2.10;;;25.90;49.20;;;;;;4999671;28;20408;-82
2023/08/08 08:26:56;;;;;;;2.40;2.20;;;26.00;49.00;;;;;;4991153;28;20472;-83
2023/08/08 08:29:24;;;;;;;2.20;2.10;;;26.00;49.00;;;;;;4987900;28;20462;-83
2023/08/08 08:31:52;;;;;;;3.17;2.43;;;26.10;49.20;;;;;;4995134;28;20473;-83
2023/08/08 08:34:20;;;;;;;2.17;2.00;;;26.20;49.20;;;;;;4996972;28;20796;-83
2023/08/08 08:36:48;;;;;;;2.13;1.90;;;26.30;49.10;;;;;;4990428;28;20433;-83
2023/08/08 08:39:16;;;;;;;4.20;1.87;;;26.20;49.10;;;;;;4998948;28;20433;-83
2023/08/08 08:41:45;;;;;;;3.30;2.00;;;26.30;49.50;;;;;;4997107;28;20511;-82
2023/08/08 08:44:14;;;;;;;1.73;1.63;;;26.60;49.80;;;;;;4996998;28;20424;-83
2023/08/08 08:46:42;;;;;;;2.47;2.23;;;26.80;49.10;;;;;;4998405;28;20504;-83
2023/08/08 08:49:09;;;;;;;1.83;1.70;;;26.80;48.70;;;;;;4997803;28;20437;-82
2023/08/08 08:51:38;;;;;;;3.67;1.60;;;27.00;49.10;;;;;;4998264;28;20500;-83
2023/08/08 08:54:06;;;;;;;1.70;1.60;;;27.10;48.70;;;;;;4998287;28;20447;-82
2023/08/08 08:56:34;;;;;;;1.77;1.53;;;27.20;48.80;;;;;;4998478;28;20440;-83
2023/08/08 08:59:03;;;;;;;2.30;1.83;;;27.40;48.80;;;;;;4997976;28;20452;-82
2023/08/08 09:01:31;;;;;;;1.90;1.80;;;27.70;48.80;;;;;;4996122;28;20547;-82
2023/08/08 09:03:59;;;;;;;1.90;1.80;;;27.80;48.20;;;;;;4994854;28;20453;-82
2023/08/08 09:06:27;;;;;;;1.70;1.60;;;27.80;47.90;;;;;;4997991;28;20455;-83
2023/08/08 09:08:55;;;;;;;2.07;1.43;;;27.90;47.80;;;;;;4989904;28;20442;-82
2023/08/08 09:11:33;;;;;;;2.13;1.50;;;28.00;47.80;;;;;;4986840;28;20437;-83
2023/08/08 09:14:03;;;;;;;1.93;1.40;;;28.10;47.70;;;;;;4994940;28;20488;-83
2023/08/08 09:16:31;;;;;;;2.80;1.63;;;28.40;47.70;;;;;;4989796;28;20506;-82
2023/08/08 09:19:00;;;;;;;3.23;1.33;;;28.50;47.40;;;;;;4995917;28;20476;-83
2023/08/08 09:21:28;;;;;;;2.20;1.30;;;28.50;47.00;;;;;;4990572;28;20457;-83
2023/08/08 09:23:56;;;;;;;1.67;1.47;;;28.50;47.00;;;;;;4998564;28;20445;-82
2023/08/08 09:26:24;;;;;;;1.53;1.40;;;28.50;46.90;;;;;;4998056;28;20440;-83
2023/08/08 09:28:53;;;;;;;2.20;1.23;;;28.40;46.90;;;;;;4998627;28;20472;-83
2023/08/08 09:31:24;;;;;;;4.60;1.40;;;28.20;46.90;;;;;;4998541;28;20465;-83
2023/08/08 09:33:52;;;;;;;1.53;1.40;;;28.20;47.20;;;;;;4997925;28;20940;-83
2023/08/08 09:36:20;;;;;;;1.93;1.33;;;28.20;47.20;;;;;;4994610;28;20520;-83
2023/08/08 09:38:49;;;;;;;1.83;1.60;;;28.10;47.10;;;;;;4993077;28;20444;-83
2023/08/08 09:41:17;;;;;;;2.23;1.70;;;28.10;47.20;;;;;;4994843;28;20468;-83
2023/08/08 09:43:45;;;;;;;2.10;1.20;;;28.30;47.50;;;;;;4991860;28;20501;-83
2023/08/08 09:46:13;;;;;;;1.93;1.40;;;28.60;47.50;;;;;;4998133;28;20441;-83
2023/08/08 09:48:43;;;;;;;2.67;1.37;;;28.80;47.10;;;;;;4997768;28;20461;-83
2023/08/08 09:51:11;;;;;;;1.37;1.27;;;28.90;47.00;;;;;;4996413;28;20532;-83
2023/08/08 09:53:39;;;;;;;2.13;1.40;;;29.20;47.20;;;;;;5008087;28;20491;-83
2023/08/08 09:56:08;;;;;;;2.50;1.30;;;29.30;46.70;;;;;;5010071;28;20453;-83
2023/08/08 09:58:36;;;;;;;1.87;1.30;;;29.40;46.30;;;;;;5019178;28;20475;-83
2023/08/08 10:01:05;;;;;;;1.10;1.10;;;29.30;46.20;;;;;;5009752;28;20467;-83
2023/08/08 10:03:33;;;;;;;1.80;1.20;;;29.40;46.20;;;;;;5019002;28;20448;-83
2023/08/08 10:06:03;;;;;;;1.80;1.20;;;29.40;46.50;;;;;;5020850;28;20448;-82
2023/08/08 10:08:32;;;;;;;5.13;1.20;;;29.40;46.20;;;;;;5005316;28;20479;-83
2023/08/08 10:11:00;;;;;;;3.80;1.43;;;29.60;46.20;;;;;;4998599;28;20500;-83
2023/08/08 10:13:28;;;;;;;2.40;1.50;;;29.70;46.10;;;;;;5001219;28;20442;-83
2023/08/08 10:15:56;;;;;;;1.23;1.13;;;29.80;45.80;;;;;;5001622;28;20475;-80
2023/08/08 10:18:25;;;;;;;1.50;1.33;;;29.90;45.60;;;;;;5001017;28;20960;-81
2023/08/08 10:20:53;;;;;;;1.57;1.30;;;30.00;45.60;;;;;;4999853;28;20465;-81
2023/08/08 10:23:22;;;;;;;1.07;1.07;;;30.00;45.50;;;;;;5000915;28;20443;-83
2023/08/08 10:25:51;;;;;;;2.23;1.20;;;29.90;45.20;;;;;;5001115;28;20461;-83
2023/08/08 10:28:21;;;;;;;1.90;1.50;;;29.70;45.40;;;;;;4996868;28;20545;-83
2023/08/08 10:30:56;;;;;;;1.50;1.33;;;29.80;45.60;;;;;;5000957;28;20481;-81
2023/08/08 10:33:25;;;;;;;1.40;1.30;;;29.80;45.80;;;;;;5002017;28;20437;-81
2023/08/08 10:35:58;;;;;;;1.97;1.40;;;30.00;46.10;;;;;;5000843;28;20455;-81
2023/08/08 10:38:28;;;;;;;1.43;1.30;;;30.30;45.60;;;;;;5001078;28;20437;-81
2023/08/08 10:40:58;;;;;;;2.47;1.10;;;30.30;45.10;;;;;;5000918;28;20537;-80
2023/08/08 10:43:27;;;;;;;1.30;1.13;;;30.30;45.20;;;;;;5000513;28;20532;-81
2023/08/08 10:45:58;;;;;;;2.73;1.20;;;30.30;45.10;;;;;;5000853;28;20491;-81
2023/08/08 10:48:50;;;;;;;1.30;1.20;;;30.20;45.00;;;;;;5014830;28;20472;-80
2023/08/08 10:51:19;;;;;;;1.30;1.20;;;30.10;45.10;;;;;;5021699;28;20464;-80
2023/08/08 10:53:51;;;;;;;2.80;1.50;;;30.10;45.10;;;;;;5026624;28;20468;-81
2023/08/08 10:56:20;;;;;;;2.87;1.33;;;30.00;45.00;;;;;;5020500;28;20510;-81
2023/08/08 10:58:49;;;;;;;2.10;1.10;;;30.00;45.20;;;;;;5020666;28;20441;-81
2023/08/08 11:01:17;;;;;;;1.33;1.23;;;29.80;45.30;;;;;;5019870;28;20495;-81
2023/08/08 11:03:46;;;;;;;1.23;1.10;;;29.70;45.70;;;;;;5008904;28;20453;-80
2023/08/08 11:06:14;;;;;;;2.13;1.30;;;29.60;46.20;;;;;;5019229;28;20437;-81
2023/08/08 11:08:42;;;;;;;1.57;1.20;;;29.70;46.40;;;;;;5011591;28;20474;-81
2023/08/08 11:11:12;;;;;;;1.17;1.07;;;30.00;46.40;;;;;;5020269;28;20461;-81
2023/08/08 11:13:40;;;;;;;1.40;1.30;;;30.10;46.00;;;;;;5019674;28;20461;-81
2023/08/08 11:16:08;;;;;;;1.27;1.20;;;30.10;45.80;;;;;;5019844;28;20454;-81
2023/08/08 11:18:36;;;;;;;1.00;1.00;;;30.00;45.70;;;;;;4996175;28;20456;-81
2023/08/08 11:21:10;;;;;;;1.47;1.17;;;29.80;45.80;;;;;;5014538;28;20461;-80
2023/08/08 11:23:47;;;;;;;1.23;1.13;;;29.70;45.90;;;;;;5006550;28;20451;-81
2023/08/08 11:26:18;;;;;;;1.20;1.10;;;29.60;46.20;;;;;;5001987;28;20857;-78
2023/08/08 11:28:51;;;;;;;2.07;1.20;;;29.40;46.20;;;;;;5016354;28;20503;-80
2023/08/08 11:31:19;;;;;;;1.70;1.20;;;29.20;46.40;;;;;;5016464;28;20476;-81
2023/08/08 11:33:48;;;;;;;1.10;1.10;;;29.10;46.80;;;;;;5016914;28;20462;-78
2023/08/08 11:36:16;;;;;;;1.40;1.30;;;29.00;46.80;;;;;;5002033;28;20460;-80
2023/08/08 11:38:44;;;;;;;1.40;1.30;;;29.20;46.90;;;;;;5017171;28;20475;-80
2023/08/08 11:41:13;;;;;;;1.67;1.00;;;29.30;47.10;;;;;;5009354;28;20488;-81
2023/08/08 11:43:42;;;;;;;2.63;1.30;;;29.80;47.00;;;;;;4997625;28;20429;-81
2023/08/08 11:46:11;;;;;;;1.20;1.10;;;30.20;46.40;;;;;;5006263;28;20457;-81
2023/08/08 11:48:39;;;;;;;0.93;0.93;;;30.70;46.10;;;;;;5001892;28;20480;-81
2023/08/08 11:51:08;;;;;;;1.03;1.03;;;30.80;44.30;;;;;;5010009;28;20468;-81
2023/08/08 11:53:36;;;;;;;1.30;1.20;;;30.60;44.70;;;;;;5008652;28;20467;-81
2023/08/08 11:56:05;;;;;;;2.13;1.57;;;30.50;45.00;;;;;;5010887;28;20448;-81
2023/08/08 11:58:34;;;;;;;1.23;1.13;;;30.70;45.20;;;;;;4999277;28;20450;-81
2023/08/08 12:01:03;;;;;;;1.00;1.00;;;31.60;45.70;;;;;;5004484;28;20563;-80
2023/08/08 12:03:31;;;;;;;1.13;1.00;;;33.50;42.90;;;;;;5009148;28;20449;-80
2023/08/08 12:06:00;;;;;;;1.03;0.90;;;35.50;41.20;;;;;;5006722;28;20453;-82
2023/08/08 12:08:31;;;;;;;1.10;1.00;;;37.40;37.70;;;;;;5017659;28;20468;-82
2023/08/08 12:11:00;;;;;;;1.20;1.10;;;38.80;35.30;;;;;;5012529;28;20989;-82
2023/08/08 12:13:30;;;;;;;0.90;0.90;;;39.90;34.30;;;;;;5021017;28;20535;-82
2023/08/08 12:15:59;;;;;;;0.80;0.80;;;40.70;32.60;;;;;;5021886;28;20452;-83
2023/08/08 12:18:29;;;;;;;1.37;0.80;;;41.40;32.30;;;;;;5021428;28;20435;-83
2023/08/08 12:20:57;;;;;;;0.90;0.90;;;42.00;31.60;;;;;;5019895;28;20486;-82
2023/08/08 12:23:27;;;;;;;1.10;1.00;;;42.10;31.10;;;;;;5010905;28;20464;-82
2023/08/08 12:25:54;;;;;;;0.90;0.90;;;42.20;31.00;;;;;;5012425;28;20472;-82
2023/08/08 12:28:23;;;;;;;0.90;0.90;;;41.50;31.50;;;;;;4997684;28;20547;-81
2023/08/08 12:30:51;;;;;;;1.17;1.00;;;41.00;31.50;;;;;;4998407;28;20477;-82
2023/08/08 12:33:19;;;;;;;0.80;0.80;;;39.40;33.00;;;;;;4999196;28;20505;-82
2023/08/08 12:35:49;;;;;;;0.93;0.93;;;39.80;34.30;;;;;;4999621;28;20453;-80
2023/08/08 12:38:17;;;;;;;1.00;0.90;;;39.30;33.60;;;;;;4998535;28;20446;-80
2023/08/08 12:40:46;;;;;;;1.00;1.00;;;39.20;34.90;;;;;;4999939;28;20641;-80
2023/08/08 12:43:17;;;;;;;1.03;1.00;;;40.00;34.40;;;;;;4999284;28;20472;-80
2023/08/08 12:45:45;;;;;;;1.00;1.00;;;39.80;34.40;;;;;;4997151;28;20552;-81
2023/08/08 12:48:14;;;;;;;1.00;1.00;;;39.40;34.20;;;;;;4998357;28;20464;-81
2023/08/08 12:50:42;;;;;;;1.00;1.00;;;38.60;34.40;;;;;;4998387;28;20488;-81
2023/08/08 12:53:12;;;;;;;0.80;0.80;;;38.00;35.60;;;;;;4998702;28;20456;-81
2023/08/08 12:55:40;;;;;;;1.10;1.10;;;37.20;36.00;;;;;;4997635;28;20957;-81
2023/08/08 12:58:08;;;;;;;1.10;1.10;;;36.70;36.90;;;;;;4998903;28;20453;-81